createdAt,value
2018-06-19T00:00:54.549Z,11.23
2018-06-19T00:03:00.072Z,16.13
2018-06-19T00:05:05.296Z,12.80
2018-06-19T00:07:10.939Z,9.60
2018-06-19T00:09:16.111Z,15.53
2018-06-19T00:11:21.303Z,16.67
2018-06-19T00:13:26.830Z,19.97
2018-06-19T00:15:31.932Z,14.37
2018-06-19T00:17:38.665Z,8.63
2018-06-19T00:19:49.748Z,15.20
2018-06-19T00:21:57.807Z,13.80
2018-06-19T00:24:02.950Z,11.77
2018-06-19T00:26:08.032Z,34.00
2018-06-19T00:28:13.999Z,15.37
2018-06-19T00:30:19.147Z,17.90
2018-06-19T00:32:24.651Z,15.30
2018-06-19T00:34:30.282Z,15.77
2018-06-19T00:36:37.311Z,16.77
2018-06-19T00:38:42.563Z,13.70
2018-06-19T00:40:47.715Z,17.17
2018-06-19T00:42:53.116Z,11.47
2018-06-19T00:44:58.092Z,14.50
2018-06-19T00:47:03.029Z,14.40
2018-06-19T00:49:08.864Z,9.03
2018-06-19T00:51:14.511Z,9.87
2018-06-19T00:53:20.424Z,9.50
2018-06-19T00:55:25.957Z,13.10
2018-06-19T00:57:30.933Z,12.73
2018-06-19T00:59:36.349Z,16.87
2018-06-19T01:01:41.348Z,14.37
2018-06-19T01:03:46.822Z,16.47
2018-06-19T01:05:51.776Z,13.47
2018-06-19T01:07:57.200Z,14.67
2018-06-19T01:10:02.184Z,13.00
2018-06-19T01:12:08.265Z,16.63
2018-06-19T01:14:13.747Z,16.93
2018-06-19T01:16:19.446Z,15.67
2018-06-19T01:18:24.444Z,16.73
2018-06-19T01:20:30.229Z,19.57
2018-06-19T01:22:35.155Z,17.23
2018-06-19T01:24:41.285Z,14.00
2018-06-19T01:26:46.705Z,16.00
2018-06-19T01:28:52.027Z,19.27
2018-06-19T01:30:57.358Z,14.57
2018-06-19T01:33:02.719Z,16.17
2018-06-19T01:35:07.930Z,15.30
2018-06-19T01:37:14.148Z,15.87
2018-06-19T01:39:19.056Z,20.90
2018-06-19T01:41:24.364Z,15.30
2018-06-19T01:43:30.043Z,15.27
2018-06-19T01:45:35.075Z,20.40
2018-06-19T01:47:40.757Z,16.07
2018-06-19T01:49:46.128Z,15.50
2018-06-19T01:51:51.500Z,14.33
2018-06-19T01:53:57.195Z,16.03
2018-06-19T01:56:02.224Z,17.50
2018-06-19T01:58:07.776Z,14.43
2018-06-19T02:00:13.019Z,12.50
2018-06-19T02:02:18.099Z,16.83
2018-06-19T02:04:22.634Z,14.70
2018-06-19T02:06:27.625Z,15.73
2018-06-19T02:08:33.012Z,13.17
2018-06-19T02:10:38.338Z,15.20
2018-06-19T02:12:43.426Z,18.20
2018-06-19T02:14:48.655Z,15.00
2018-06-19T02:16:53.703Z,12.03
2018-06-19T02:18:58.736Z,14.37
2018-06-19T02:21:03.910Z,14.47
2018-06-19T02:23:09.370Z,13.80
2018-06-19T02:25:14.523Z,11.30
2018-06-19T02:27:19.535Z,19.80
2018-06-19T02:29:24.953Z,18.47
2018-06-19T02:31:29.941Z,17.07
2018-06-19T02:33:34.883Z,12.73
2018-06-19T02:35:39.871Z,12.03
2018-06-19T02:37:45.642Z,12.80
2018-06-19T02:39:51.650Z,14.30
2018-06-19T02:41:56.631Z,14.23
2018-06-19T02:44:01.578Z,16.10
2018-06-19T02:46:06.463Z,15.30
2018-06-19T02:48:11.321Z,13.87
2018-06-19T02:50:16.252Z,11.50
2018-06-19T02:52:21.256Z,11.80
2018-06-19T02:54:26.412Z,12.53
2018-06-19T02:56:31.743Z,13.90
2018-06-19T02:58:37.174Z,11.10
2018-06-19T03:00:42.125Z,12.30
2018-06-19T03:02:47.117Z,13.00
2018-06-19T03:04:52.107Z,15.13
2018-06-19T03:06:57.077Z,13.57
2018-06-19T03:09:02.003Z,15.90
2018-06-19T03:11:07.313Z,10.80
2018-06-19T03:13:12.280Z,14.37
2018-06-19T03:15:17.239Z,12.17
2018-06-19T03:17:22.506Z,15.50
2018-06-19T03:19:28.378Z,16.23
2018-06-19T03:21:33.420Z,13.30
2018-06-19T03:23:38.515Z,12.73
2018-06-19T03:25:43.463Z,10.60
2018-06-19T03:27:48.494Z,11.23
2018-06-19T03:29:54.498Z,15.07
2018-06-19T03:31:59.220Z,18.10
2018-06-19T03:34:04.109Z,11.27
2018-06-19T03:36:09.047Z,10.77
2018-06-19T03:38:13.961Z,14.73
2018-06-19T03:40:18.930Z,14.23
2018-06-19T03:42:23.937Z,9.33
2018-06-19T03:44:29.553Z,12.53
2018-06-19T03:46:34.612Z,12.37
2018-06-19T03:48:39.547Z,11.53
2018-06-19T03:50:44.594Z,13.37
2018-06-19T03:52:49.531Z,16.33
2018-06-19T03:54:54.628Z,12.53
2018-06-19T03:56:59.661Z,14.23
2018-06-19T03:59:04.813Z,13.07
2018-06-19T04:01:09.837Z,10.60
2018-06-19T04:03:14.804Z,12.83
2018-06-19T04:05:19.755Z,16.23
2018-06-19T04:07:25.052Z,11.10
2018-06-19T04:09:30.008Z,16.27
2018-06-19T04:11:35.022Z,15.03
2018-06-19T04:13:40.002Z,12.27
2018-06-19T04:15:44.966Z,12.97
2018-06-19T04:17:49.919Z,13.70
2018-06-19T04:19:56.203Z,14.13
2018-06-19T04:22:01.198Z,17.87
2018-06-19T04:24:06.208Z,11.13
2018-06-19T04:26:11.161Z,15.10
2018-06-19T04:28:16.966Z,14.17
2018-06-19T04:30:21.951Z,15.33
2018-06-19T04:32:26.885Z,16.07
2018-06-19T04:34:31.818Z,14.03
2018-06-19T04:36:36.809Z,12.57
2018-06-19T04:38:41.936Z,9.67
2018-06-19T04:40:47.842Z,18.40
2018-06-19T04:42:52.782Z,17.97
2018-06-19T04:44:57.960Z,13.03
2018-06-19T04:47:03.112Z,11.47
2018-06-19T04:49:08.159Z,16.43
2018-06-19T04:51:13.114Z,14.87
2018-06-19T04:53:18.033Z,13.03
2018-06-19T04:55:22.961Z,14.27
2018-06-19T04:57:27.915Z,16.27
2018-06-19T04:59:32.330Z,13.07
2018-06-19T05:01:37.494Z,16.67
2018-06-19T05:03:45.656Z,15.80
2018-06-19T05:05:51.167Z,17.07
2018-06-19T05:07:56.151Z,17.97
2018-06-19T05:10:01.098Z,13.13
2018-06-19T05:12:06.092Z,14.57
2018-06-19T05:14:12.022Z,11.90
2018-06-19T05:16:17.520Z,16.87
2018-06-19T05:18:22.459Z,12.47
2018-06-19T05:20:28.175Z,14.97
2018-06-19T05:22:33.102Z,14.07
2018-06-19T05:24:38.144Z,12.37
2018-06-19T05:26:43.154Z,14.10
2018-06-19T05:28:48.138Z,11.30
2018-06-19T05:30:53.189Z,16.63
2018-06-19T05:32:58.574Z,16.53
2018-06-19T05:35:05.906Z,13.43
2018-06-19T05:37:11.268Z,16.97
2018-06-19T05:39:17.254Z,14.90
2018-06-19T05:41:22.222Z,15.53
2018-06-19T05:43:27.191Z,15.33
2018-06-19T05:45:32.537Z,16.27
2018-06-19T05:47:37.510Z,13.70
2018-06-19T05:49:42.444Z,17.73
2018-06-19T05:51:48.286Z,14.57
2018-06-19T05:53:53.194Z,17.43
2018-06-19T05:55:58.106Z,14.53
2018-06-19T05:58:03.073Z,16.67
2018-06-19T06:00:08.396Z,15.67
2018-06-19T06:02:13.476Z,16.37
2018-06-19T06:04:18.425Z,14.77
2018-06-19T06:06:22.877Z,21.17
2018-06-19T06:08:27.778Z,19.03
2018-06-19T06:10:32.989Z,16.20
2018-06-19T06:12:37.924Z,16.00
2018-06-19T06:14:42.850Z,18.90
2018-06-19T06:16:47.325Z,21.43
2018-06-19T06:18:52.159Z,22.93
2018-06-19T06:20:57.893Z,19.10
2018-06-19T06:23:03.142Z,16.03
2018-06-19T06:25:08.429Z,20.87
2018-06-19T06:27:15.973Z,18.07
2018-06-19T06:29:21.629Z,18.30
2018-06-19T06:31:26.574Z,17.37
2018-06-19T06:33:31.960Z,20.57
2018-06-19T06:35:43.611Z,22.40
2018-06-19T06:37:52.992Z,16.00
2018-06-19T06:40:01.900Z,18.23
2018-06-19T06:42:09.626Z,18.50
2018-06-19T06:44:15.458Z,19.30
2018-06-19T06:46:20.370Z,23.50
2018-06-19T06:48:25.351Z,18.63
2018-06-19T06:50:30.467Z,22.33
2018-06-19T06:52:35.383Z,19.13
2018-06-19T06:54:40.470Z,25.40
2018-06-19T06:56:45.480Z,15.80
2018-06-19T06:58:50.537Z,21.43
2018-06-19T07:00:55.879Z,15.73
2018-06-19T07:03:00.915Z,23.17
2018-06-19T07:05:06.289Z,22.90
2018-06-19T07:07:11.089Z,20.03
2018-06-19T07:09:16.099Z,23.67
2018-06-19T07:11:22.064Z,23.10
2018-06-19T07:13:27.728Z,22.23
2018-06-19T07:15:32.726Z,22.53
2018-06-19T07:17:37.749Z,24.27
2018-06-19T07:19:43.096Z,21.90
2018-06-19T07:21:48.071Z,25.33
2018-06-19T07:23:53.621Z,22.20
2018-06-19T07:25:58.668Z,23.07
2018-06-19T07:28:03.614Z,31.67
2018-06-19T07:30:08.971Z,23.20
2018-06-19T07:32:13.909Z,25.07
2018-06-19T07:34:19.104Z,26.53
2018-06-19T07:36:24.291Z,21.83
2018-06-19T07:38:29.258Z,22.47
2018-06-19T07:40:34.247Z,24.43
2018-06-19T07:42:39.278Z,20.80
2018-06-19T07:44:44.199Z,24.13
2018-06-19T07:46:49.251Z,20.87
2018-06-19T07:48:54.213Z,23.83
2018-06-19T07:50:59.188Z,16.80
2018-06-19T07:53:04.163Z,27.50
2018-06-19T07:55:09.156Z,24.63
2018-06-19T07:57:14.144Z,22.60
2018-06-19T07:59:40.956Z,22.50
2018-06-19T08:01:46.171Z,20.43
2018-06-19T08:03:51.190Z,25.47
2018-06-19T08:05:56.346Z,26.97
2018-06-19T08:08:01.332Z,19.93
2018-06-19T08:10:06.810Z,21.40
2018-06-19T08:12:11.743Z,18.40
2018-06-19T08:14:17.447Z,17.50
2018-06-19T08:16:22.425Z,22.53
2018-06-19T08:18:27.423Z,18.07
2018-06-19T08:20:32.858Z,17.03
2018-06-19T08:22:40.654Z,16.00
2018-06-19T08:24:45.639Z,14.53
2018-06-19T08:26:50.635Z,15.53
2018-06-19T08:28:55.982Z,18.70
2018-06-19T08:31:00.450Z,18.23
2018-06-19T08:33:05.278Z,14.13
2018-06-19T08:35:10.317Z,13.93
2018-06-19T08:37:15.303Z,17.90
2018-06-19T08:39:20.363Z,15.07
2018-06-19T08:41:25.310Z,15.07
2018-06-19T08:43:30.332Z,16.80
2018-06-19T08:45:35.476Z,18.07
2018-06-19T08:47:40.400Z,15.77
2018-06-19T08:49:45.321Z,21.43
2018-06-19T08:51:50.561Z,18.37
2018-06-19T08:53:55.606Z,20.23
2018-06-19T08:56:00.951Z,15.97
2018-06-19T08:58:06.174Z,17.40
2018-06-19T09:00:11.227Z,20.23
2018-06-19T09:02:16.302Z,22.50
2018-06-19T09:04:21.351Z,17.23
2018-06-19T09:06:26.462Z,21.93
2018-06-19T09:08:31.448Z,22.17
2018-06-19T09:10:36.923Z,23.60
2018-06-19T09:12:41.964Z,17.77
2018-06-19T09:14:47.211Z,15.93
2018-06-19T09:16:52.523Z,16.40
2018-06-19T09:18:58.295Z,21.33
2018-06-19T09:21:03.751Z,19.13
2018-06-19T09:23:09.741Z,19.17
2018-06-19T09:25:14.732Z,22.17
2018-06-19T09:27:20.155Z,18.97
2018-06-19T09:29:26.229Z,15.97
2018-06-19T09:31:31.324Z,22.10
2018-06-19T09:33:36.771Z,16.07
2018-06-19T09:35:41.957Z,20.40
2018-06-19T09:37:47.277Z,21.40
2018-06-19T09:39:52.257Z,15.13
2018-06-19T09:41:57.196Z,20.20
2018-06-19T09:44:02.282Z,17.23
2018-06-19T09:46:07.282Z,16.43
2018-06-19T09:48:12.286Z,17.90
2018-06-19T09:50:17.275Z,15.57
2018-06-19T09:52:22.300Z,17.80
2018-06-19T09:54:27.336Z,17.90
2018-06-19T09:56:32.331Z,13.57
2018-06-19T09:58:37.381Z,18.67
2018-06-19T10:00:42.950Z,21.27
2018-06-19T10:02:48.068Z,13.60
2018-06-19T10:04:53.159Z,17.93
2018-06-19T10:06:58.215Z,17.70
2018-06-19T10:09:03.334Z,12.57
2018-06-19T10:11:08.364Z,15.03
2018-06-19T10:13:13.316Z,15.60
2018-06-19T10:15:18.285Z,11.17
2018-06-19T10:17:23.879Z,17.47
2018-06-19T10:19:29.055Z,17.57
2018-06-19T10:21:34.389Z,15.30
2018-06-19T10:23:39.274Z,12.87
2018-06-19T10:25:44.562Z,15.40
2018-06-19T10:27:49.491Z,12.00
2018-06-19T10:29:54.418Z,23.03
2018-06-19T10:31:59.484Z,14.30
2018-06-19T10:34:06.128Z,11.77
2018-06-19T10:36:11.101Z,11.37
2018-06-19T10:38:16.018Z,15.87
2018-06-19T10:40:21.152Z,13.10
2018-06-19T10:42:26.603Z,15.47
2018-06-19T10:44:31.531Z,12.30
2018-06-19T10:46:36.837Z,13.00
2018-06-19T10:48:42.145Z,12.73
2018-06-19T10:50:48.323Z,11.17
2018-06-19T10:52:53.061Z,14.57
2018-06-19T10:54:57.359Z,13.57
2018-06-19T10:57:02.643Z,10.67
2018-06-19T10:59:07.735Z,11.53
2018-06-19T11:01:12.694Z,10.17
2018-06-19T11:03:18.562Z,11.60
2018-06-19T11:05:35.094Z,10.37
2018-06-19T11:07:40.216Z,8.57
2018-06-19T11:09:47.483Z,10.47
2018-06-19T11:11:52.497Z,10.20
2018-06-19T11:13:57.764Z,9.27
2018-06-19T11:16:02.701Z,10.00
2018-06-19T11:18:11.917Z,10.30
2018-06-19T11:20:17.171Z,9.03
2018-06-19T11:22:22.318Z,9.50
2018-06-19T11:24:27.780Z,9.20
2018-06-19T11:26:33.025Z,10.13
2018-06-19T11:28:38.483Z,9.53
2018-06-19T11:30:43.837Z,8.53
2018-06-19T11:32:48.974Z,9.23
2018-06-19T11:34:53.946Z,10.57
2018-06-19T11:36:59.650Z,9.20
2018-06-19T11:39:06.967Z,5.57
2018-06-19T11:41:12.403Z,5.93
2018-06-19T11:43:17.586Z,6.50
2018-06-19T11:45:22.970Z,6.07
2018-06-19T11:47:28.200Z,5.43
2018-06-19T11:49:33.537Z,4.70
2018-06-19T11:51:39.054Z,8.27
2018-06-19T11:53:44.037Z,5.53
2018-06-19T11:55:49.359Z,4.10
2018-06-19T11:57:55.094Z,5.80
2018-06-19T12:00:00.682Z,4.90
2018-06-19T12:02:06.508Z,4.60
2018-06-19T12:04:11.470Z,3.10
2018-06-19T12:06:16.480Z,6.77
2018-06-19T12:08:21.442Z,4.90
2018-06-19T12:10:27.634Z,4.07
2018-06-19T12:12:32.704Z,3.50
2018-06-19T12:14:40.095Z,6.93
2018-06-19T12:16:46.464Z,3.57
2018-06-19T12:18:52.178Z,4.20
2018-06-19T12:20:57.277Z,3.93
2018-06-19T12:23:02.246Z,5.13
2018-06-19T12:25:07.534Z,4.13
2018-06-19T12:27:13.569Z,3.90
2018-06-19T12:29:18.880Z,3.13
2018-06-19T12:31:24.981Z,7.27
2018-06-19T12:33:30.078Z,4.53
2018-06-19T12:35:35.246Z,3.80
2018-06-19T12:37:40.692Z,6.43
2018-06-19T12:39:47.860Z,3.90
2018-06-19T12:41:53.851Z,4.07
2018-06-19T12:44:15.519Z,3.70
2018-06-19T12:48:47.784Z,2.97
2018-06-19T12:52:02.944Z,3.37
2018-06-19T12:54:21.273Z,5.00
2018-06-19T12:56:26.260Z,4.40
2018-06-19T12:58:31.610Z,2.77
2018-06-19T13:00:36.980Z,4.90
2018-06-19T13:03:47.364Z,7.00
2018-06-19T13:06:04.656Z,3.07
2018-06-19T13:08:10.003Z,8.63
2018-06-19T13:10:15.144Z,5.07
2018-06-19T13:12:30.936Z,5.70
2018-06-19T13:14:41.273Z,5.70
2018-06-19T13:16:57.591Z,8.00
2018-06-19T13:19:13.651Z,5.20
2018-06-19T13:21:18.620Z,6.83
2018-06-19T13:23:24.803Z,7.70
2018-06-19T13:25:30.149Z,5.17
2018-06-19T13:27:35.666Z,4.20
2018-06-19T13:29:52.767Z,8.13
2018-06-19T13:31:59.167Z,5.53
2018-06-19T13:34:04.595Z,6.30
2018-06-19T13:36:10.004Z,6.97
2018-06-19T13:38:17.496Z,6.90
2018-06-19T13:41:08.466Z,7.40
2018-06-19T13:43:27.127Z,8.40
2018-06-19T13:45:32.084Z,12.37
2018-06-19T13:47:37.294Z,7.07
2018-06-19T13:49:42.226Z,6.10
2018-06-19T13:51:47.114Z,4.63
2018-06-19T13:53:55.035Z,4.60
2018-06-19T13:56:10.873Z,4.40
2018-06-19T13:58:20.643Z,5.10
2018-06-19T14:00:25.728Z,5.50
2018-06-19T14:02:30.674Z,3.83
2018-06-19T14:04:35.847Z,4.43
2018-06-19T14:06:40.751Z,5.17
2018-06-19T14:09:02.346Z,7.00
2018-06-19T14:11:18.142Z,4.93
2018-06-19T14:13:23.062Z,6.47
2018-06-19T14:15:29.199Z,7.83
2018-06-19T14:17:34.112Z,4.00
2018-06-19T14:19:39.033Z,4.23
2018-06-19T14:21:43.961Z,5.73
2018-06-19T14:23:48.829Z,7.40
2018-06-19T14:25:53.895Z,7.17
2018-06-19T14:27:58.854Z,5.27
2018-06-19T14:30:03.860Z,5.77
2018-06-19T14:32:08.742Z,3.23
2018-06-19T14:34:13.691Z,5.40
2018-06-19T14:36:18.630Z,6.27
2018-06-19T14:38:25.661Z,5.73
2018-06-19T14:40:30.747Z,4.83
2018-06-19T14:42:35.715Z,6.43
2018-06-19T14:44:40.635Z,4.87
2018-06-19T14:46:45.614Z,4.70
2018-06-19T14:48:50.568Z,5.57
2018-06-19T14:50:55.539Z,3.00
2018-06-19T14:53:00.434Z,3.63
2018-06-19T14:55:06.502Z,6.23
2018-06-19T14:57:11.558Z,5.13
2018-06-19T14:59:16.446Z,5.30
2018-06-19T15:01:21.598Z,4.63
2018-06-19T15:03:26.620Z,3.90
2018-06-19T15:05:31.482Z,5.93
2018-06-19T15:07:41.625Z,4.40
2018-06-19T15:09:46.624Z,4.27
2018-06-19T15:11:51.555Z,4.90
2018-06-19T15:13:56.394Z,8.20
2018-06-19T15:16:01.318Z,3.53
2018-06-19T15:18:06.287Z,3.67
2018-06-19T15:20:11.387Z,5.47
2018-06-19T15:22:16.291Z,5.93
2018-06-19T15:24:21.135Z,6.90
2018-06-19T15:26:26.234Z,7.43
2018-06-19T15:28:31.120Z,4.00
2018-06-19T15:30:36.069Z,5.30
2018-06-19T15:32:41.042Z,6.23
2018-06-19T15:34:45.947Z,6.00
2018-06-19T15:36:50.928Z,4.57
2018-06-19T15:38:55.858Z,4.17
2018-06-19T15:41:00.851Z,2.93
2018-06-19T15:43:05.875Z,4.07
2018-06-19T15:45:12.800Z,3.87
2018-06-19T15:47:17.835Z,3.07
2018-06-19T15:49:22.825Z,2.83
2018-06-19T15:51:28.210Z,4.73
2018-06-19T15:53:33.157Z,5.10
2018-06-19T15:55:38.059Z,5.20
2018-06-19T15:57:43.066Z,5.20
2018-06-19T15:59:48.003Z,4.57
2018-06-19T16:01:52.929Z,3.33
2018-06-19T16:03:57.831Z,7.33
2018-06-19T16:06:09.706Z,2.83
2018-06-19T16:08:17.619Z,6.47
2018-06-19T16:10:22.606Z,2.90
2018-06-19T16:12:27.482Z,4.73
2018-06-19T16:14:32.406Z,3.73
2018-06-19T16:16:37.415Z,5.07
2018-06-19T16:18:42.342Z,6.57
2018-06-19T16:20:47.266Z,6.87
2018-06-19T16:22:52.362Z,5.03
2018-06-19T16:24:57.246Z,5.17
2018-06-19T16:27:02.171Z,4.83
2018-06-19T16:29:07.091Z,6.00
2018-06-19T16:31:12.035Z,6.93
2018-06-19T16:33:16.956Z,6.23
2018-06-19T16:35:21.826Z,5.27
2018-06-19T16:37:26.825Z,6.13
2018-06-19T16:39:31.769Z,7.87
2018-06-19T16:41:36.720Z,5.60
2018-06-19T16:43:41.790Z,8.33
2018-06-19T16:45:46.746Z,6.53
2018-06-19T16:47:51.634Z,5.90
2018-06-19T16:49:58.815Z,8.53
2018-06-19T16:52:03.791Z,3.23
2018-06-19T16:54:08.754Z,6.13
2018-06-19T16:56:13.708Z,3.20
2018-06-19T16:58:18.647Z,7.13
2018-06-19T17:00:37.831Z,4.57
2018-06-19T17:02:42.765Z,6.50
2018-06-19T17:04:47.690Z,5.60
2018-06-19T17:06:52.663Z,4.90
2018-06-19T17:08:57.565Z,4.73
2018-06-19T17:11:01.997Z,5.63
2018-06-19T17:13:06.815Z,7.30
2018-06-19T17:15:11.781Z,4.13
2018-06-19T17:17:16.751Z,5.57
2018-06-19T17:19:22.223Z,10.27
2018-06-19T17:21:27.155Z,6.47
2018-06-19T17:23:32.100Z,6.33
2018-06-19T17:25:37.054Z,7.37
2018-06-19T17:27:42.133Z,7.63
2018-06-19T17:29:46.991Z,5.07
2018-06-19T17:31:51.949Z,7.07
2018-06-19T17:33:57.192Z,6.77
2018-06-19T17:36:02.435Z,6.13
2018-06-19T17:38:07.518Z,8.17
2018-06-19T17:40:14.065Z,6.40
2018-06-19T17:42:19.039Z,6.27
2018-06-19T17:44:23.997Z,9.73
2018-06-19T17:46:29.104Z,6.83
2018-06-19T17:48:34.029Z,6.83
2018-06-19T17:50:38.931Z,7.77
2018-06-19T17:52:43.859Z,8.17
2018-06-19T17:54:48.800Z,8.33
2018-06-19T17:56:53.733Z,6.53
2018-06-19T17:58:58.647Z,8.23
2018-06-19T18:01:03.717Z,6.53
2018-06-19T18:03:08.672Z,11.10
2018-06-19T18:05:13.612Z,8.30
2018-06-19T18:07:18.061Z,7.67
2018-06-19T18:09:22.497Z,19.67
2018-06-19T18:11:27.376Z,10.10
2018-06-19T18:13:32.341Z,12.13
2018-06-19T18:15:37.223Z,7.70
2018-06-19T18:17:42.163Z,7.67
2018-06-19T18:19:47.122Z,7.57
2018-06-19T18:21:52.291Z,6.30
2018-06-19T18:23:57.224Z,6.20
2018-06-19T18:26:02.476Z,8.50
2018-06-19T18:28:07.488Z,6.97
2018-06-19T18:30:12.422Z,6.80
2018-06-19T18:32:17.244Z,5.70
2018-06-19T18:34:22.236Z,12.67
2018-06-19T18:36:27.138Z,9.90
2018-06-19T18:38:32.036Z,9.23
2018-06-19T18:40:37.234Z,8.97
2018-06-19T18:42:42.151Z,7.10
2018-06-19T18:44:47.026Z,9.07
2018-06-19T18:46:52.170Z,6.17
2018-06-19T18:48:57.134Z,10.00
2018-06-19T18:51:02.211Z,6.37
2018-06-19T18:53:07.359Z,7.50
2018-06-19T18:55:12.423Z,7.00
2018-06-19T18:57:17.581Z,7.10
2018-06-19T18:59:22.879Z,6.57
2018-06-19T19:01:28.170Z,5.43
2018-06-19T19:03:33.335Z,6.03
2018-06-19T19:05:38.320Z,9.83
2018-06-19T19:07:45.985Z,6.33
2018-06-19T19:09:58.221Z,5.70
2018-06-19T19:12:04.192Z,8.37
2018-06-19T19:14:09.270Z,6.53
2018-06-19T19:16:19.405Z,8.83
2018-06-19T19:18:29.605Z,5.33
2018-06-19T19:20:34.574Z,4.70
2018-06-19T19:22:39.170Z,3.50
2018-06-19T19:24:44.265Z,3.97
2018-06-19T19:26:54.447Z,4.03
2018-06-19T19:29:04.954Z,6.47
2018-06-19T19:31:09.978Z,3.90
2018-06-19T19:33:15.268Z,7.23
2018-06-19T19:35:21.296Z,5.13
2018-06-19T19:37:31.540Z,4.97
2018-06-19T19:39:36.659Z,3.83
2018-06-19T19:41:41.996Z,5.70
2018-06-19T19:43:47.330Z,8.53
2018-06-19T19:45:53.321Z,7.17
2018-06-19T19:48:04.635Z,4.77
2018-06-19T19:50:10.169Z,6.00
2018-06-19T19:52:16.575Z,10.67
2018-06-19T19:54:23.345Z,5.17
2018-06-19T19:56:35.344Z,7.43
2018-06-19T19:58:45.316Z,5.07
2018-06-19T20:00:50.220Z,5.20
2018-06-19T20:02:55.722Z,9.87
2018-06-19T20:05:00.677Z,7.63
2018-06-19T20:07:05.830Z,10.67
2018-06-19T20:09:10.748Z,7.93
2018-06-19T20:11:15.799Z,8.47
2018-06-19T20:13:20.856Z,4.93
2018-06-19T20:15:27.813Z,7.30
2018-06-19T20:17:33.816Z,5.83
2018-06-19T20:19:38.770Z,10.30
2018-06-19T20:21:43.757Z,9.27
2018-06-19T20:23:48.788Z,4.87
2018-06-19T20:25:53.879Z,6.10
2018-06-19T20:27:58.942Z,5.53
2018-06-19T20:30:04.074Z,5.10
2018-06-19T20:32:09.159Z,7.57
2018-06-19T20:34:14.047Z,7.77
2018-06-19T20:36:19.058Z,5.60
2018-06-19T20:38:25.085Z,4.77
2018-06-19T20:40:30.012Z,6.63
2018-06-19T20:42:35.264Z,7.60
2018-06-19T20:44:40.210Z,7.30
2018-06-19T20:46:45.223Z,9.23
2018-06-19T20:48:50.161Z,6.27
2018-06-19T20:50:55.156Z,4.87
2018-06-19T20:53:00.076Z,6.30
2018-06-19T20:55:05.312Z,6.33
2018-06-19T20:57:11.456Z,7.03
2018-06-19T20:59:17.191Z,8.97
2018-06-19T21:01:38.269Z,7.13
2018-06-19T21:03:49.732Z,6.50
2018-06-19T21:05:55.186Z,9.23
2018-06-19T21:08:00.453Z,7.47
2018-06-19T21:10:06.469Z,6.50
2018-06-19T21:12:11.495Z,10.13
2018-06-19T21:14:16.485Z,6.47
2018-06-19T21:16:21.611Z,7.23
2018-06-19T21:18:26.779Z,6.87
2018-06-19T21:20:31.824Z,4.10
2018-06-19T21:22:36.959Z,6.03
2018-06-19T21:24:42.023Z,7.23
2018-06-19T21:26:47.134Z,5.20
2018-06-19T21:28:52.270Z,7.43
2018-06-19T21:30:57.382Z,4.60
2018-06-19T21:33:02.431Z,5.53
2018-06-19T21:35:07.502Z,5.97
2018-06-19T21:37:26.554Z,6.97
2018-06-19T21:39:33.221Z,8.10
2018-06-19T21:41:39.917Z,6.70
2018-06-19T21:43:47.807Z,8.20
2018-06-19T21:45:55.192Z,6.10
2018-06-19T21:48:01.360Z,4.60
2018-06-19T21:50:07.905Z,4.80
2018-06-19T21:52:13.973Z,4.70
2018-06-19T21:54:19.799Z,7.40
2018-06-19T21:56:25.290Z,5.53
2018-06-19T21:58:32.185Z,5.57
2018-06-19T22:00:38.346Z,7.07
2018-06-19T22:02:46.442Z,10.70
2018-06-19T22:04:53.627Z,5.93
2018-06-19T22:07:12.472Z,6.67
2018-06-19T22:09:19.234Z,6.70
2018-06-19T22:11:26.826Z,5.73
2018-06-19T22:13:34.544Z,6.73
2018-06-19T22:15:40.266Z,6.27
2018-06-19T22:17:45.415Z,6.53
2018-06-19T22:19:50.538Z,5.30
2018-06-19T22:21:55.578Z,5.90
2018-06-19T22:24:00.684Z,4.67
2018-06-19T22:26:06.260Z,5.93
2018-06-19T22:28:12.179Z,6.10
2018-06-19T22:30:17.296Z,7.27
2018-06-19T22:32:34.006Z,6.90
2018-06-19T22:34:41.375Z,6.37
2018-06-19T22:36:47.927Z,5.33
2018-06-19T22:38:55.008Z,5.47
2018-06-19T22:41:02.205Z,5.10
2018-06-19T22:43:10.218Z,5.60
2018-06-19T22:45:18.205Z,4.03
2018-06-19T22:47:26.612Z,4.17
2018-06-19T22:49:35.787Z,4.50
2018-06-19T22:51:42.554Z,3.43
2018-06-19T22:53:49.744Z,5.33
2018-06-19T22:55:55.976Z,5.27
2018-06-19T22:58:01.878Z,4.90
2018-06-19T23:00:09.537Z,4.97
2018-06-19T23:02:17.946Z,5.60
2018-06-19T23:04:25.135Z,6.00
2018-06-19T23:06:31.067Z,5.37
2018-06-19T23:08:36.528Z,6.27
2018-06-19T23:10:43.959Z,5.43
2018-06-19T23:12:49.005Z,7.97
2018-06-19T23:14:54.063Z,5.03
2018-06-19T23:16:59.409Z,3.83
2018-06-19T23:19:05.495Z,6.00
2018-06-19T23:21:11.114Z,4.50
2018-06-19T23:23:18.137Z,4.77
2018-06-19T23:25:24.323Z,5.53
2018-06-19T23:27:30.126Z,6.20
2018-06-19T23:29:36.255Z,5.07
2018-06-19T23:31:41.486Z,4.80
2018-06-19T23:33:47.462Z,5.50
2018-06-19T23:36:03.007Z,5.40
2018-06-19T23:38:10.237Z,6.03
2018-06-19T23:40:15.980Z,6.27
2018-06-19T23:42:21.924Z,6.93
2018-06-19T23:44:27.164Z,5.13
2018-06-19T23:46:34.139Z,6.70
2018-06-19T23:48:40.834Z,6.73
2018-06-19T23:50:46.612Z,6.73
2018-06-19T23:52:52.024Z,6.90
2018-06-19T23:54:58.159Z,6.37
2018-06-19T23:57:04.240Z,5.23
2018-06-19T23:59:09.266Z,7.77
